This is the latest recevied weather packets stored in our database for station/object OK1FET-14. If no packets are shown the sender has not sent any weather packets the latest 10 day(s).
| Time | Temp. | Humidity | Pressure | Rain* | Wind** | Luminosity | Snow |
|---|---|---|---|---|---|---|---|
| 1787403707 | 19.44° C | 86% | 1019.1 hPa | - | - | - | - |
| 1787403707 | 19.44° C | 86% | 1019.1 hPa | - | - | - | - |
| 1787403427 | 18.89° C | 90% | 1018.9 hPa | - | - | - | - |
| 1787403427 | 18.89° C | 90% | 1018.9 hPa | - | - | - | - |
| 1787403426 | 18.89° C | 90% | 1018.9 hPa | - | - | - | - |
| 1787403146 | 17.22° C | 100% | 1018.9 hPa | - | - | - | - |
| 1787403146 | 17.22° C | 100% | 1018.9 hPa | - | - | - | - |
| 1787403146 | 17.22° C | 100% | 1018.9 hPa | - | - | - | - |
| 1787403146 | 17.22° C | 100% | 1018.9 hPa | - | - | - | - |
| 1787402865 | 18.33° C | 97% | 1018.8 hPa | - | - | - | - |
| 1787402865 | 18.33° C | 97% | 1018.8 hPa | - | - | - | - |
| 1787402865 | 18.33° C | 97% | 1018.8 hPa | - | - | - | - |
| 1787402865 | 18.33° C | 97% | 1018.8 hPa | - | - | - | - |
| 1787402584 | 17.22° C | 100% | 1018.8 hPa | - | - | - | - |
| 1787402584 | 17.22° C | 100% | 1018.8 hPa | - | - | - | - |
| 1787402584 | 17.22° C | 100% | 1018.8 hPa | - | - | - | - |
| 1787402584 | 17.22° C | 100% | 1018.8 hPa | - | - | - | - |
| 1787402304 | 17.78° C | 100% | 1018.8 hPa | - | - | - | - |
| 1787402303 | 17.78° C | 100% | 1018.8 hPa | - | - | - | - |
| 1787402303 | 17.78° C | 100% | 1018.8 hPa | - | - | - | - |
| 1787402303 | 17.78° C | 100% | 1018.8 hPa | - | - | - | - |
| 1787402022 | 18.89° C | 98% | 1018.7 hPa | - | - | - | - |
| 1787402022 | 18.89° C | 98% | 1018.7 hPa | - | - | - | - |
| 1787402022 | 18.89° C | 98% | 1018.7 hPa | - | - | - | - |
| 1787401741 | 18.89° C | 100% | 1018.6 hPa | - | - | - | - |
* Rain since midnight (hover to see other rain measurements)
** Current wind speed in m/s (hover to see current wind gust speed)